Sunset Acres, Arizona
Current Conditions -  °F | °C
As of 11:56 AM on Thursday 18 Dec 2014 (Local Time) from KDUG Reporting Station
Overcast Overcast  
Wind Chill: 51°   Ceiling: 9000
Heat Index: 51°   Visibility: 10mi
Dew Point: 41°   Wind: 3mph
Humidity: 68%   Direction: 180°S
Pressure: 30.12"   Gusts: NA
Location:  31.4799°N, 109.96°W
Report Text: KDUG 181856Z AUTO 18003KT 10SM OVC090 11/05 A3012 RMK AO2 SLP175 T01060050
Loading
Personal Weather Stations






























Interactive Weather Map New forecast layout! Learn more

10-Day Weather Forecast

Advertisements
Track Severe Weather on mobile